Terminal Aerodrome Forecast
Issued by NWS Jacksonville, FL

Home | Current Version | Previous Version | Text Only | Print | Product List | Glossary On
Versions: 1 2 3 4 5 6 7 8 9 10 11 12 13 14 15 16 17 18 19 20 21
000
FTUS42 KJAX 202100 AAA
TAFJAX
TAF AMD
KJAX 202103Z 2021/2118 28009KT P6SM FEW045 SCT250
     FM210200 25004KT P6SM FEW250
     FM211500 28007KT P6SM FEW040=

USA.gov is the U.S. government's official web portal to all federal, state and local government web resources and services.